IVR weather

Inverell Airport
Inverell, New South Wales, Australia

Public forecast

Using degrees Celsius for public forecast. Weather courtesy of forecast.io.

Closest aviation weather report (METAR) to Inverell Airport

Closest report is Moree Airport, 71.7 nm (132.7 km) WNW. Retrieved 2020/04/02 20:00 UTC (57 minutes ago):

YMOR 022000Z AUTO 08008KT 9999 // BKN077 OVC093 OVC110 20/18 Q1011

Closest aviation forecast (TAF) to Inverell Airport

Closest forecast is Tamworth Airport, 73.4 nm (136.0 km) SSW. Retrieved 2020/04/02 18:45 UTC (2 hours ago):

TAF COR YSTW 021842Z 0218/0312 VRB03KT 0200 FG BKN001 BECMG 0218/0220 36005KT 9999 SCT030 FM030000 35008KT 9999 -SHRA SCT010 BKN015 TEMPO 0300/0312 4000 RA BKN008 PROB30 0303/0309 VRB25G35KT 2000 TSRA BKN005 SCT030CB